sensor_id;sensor_type;location;lat;lon;timestamp;pressure;altitude;pressure_sealevel;temperature;humidity
60479;BME280;46321;48.398;11.754;2023-03-18T00:01:23;96161.47;;;4.95;67.95
60479;BME280;46321;48.398;11.754;2023-03-18T00:03:48;96156.00;;;4.88;68.30
60479;BME280;46321;48.398;11.754;2023-03-18T00:06:16;96150.38;;;4.83;67.75
60479;BME280;46321;48.398;11.754;2023-03-18T00:08:43;96149.69;;;4.81;67.52
60479;BME280;46321;48.398;11.754;2023-03-18T00:11:10;96157.94;;;4.86;67.00
60479;BME280;46321;48.398;11.754;2023-03-18T00:13:37;96150.13;;;4.76;67.80
60479;BME280;46321;48.398;11.754;2023-03-18T00:16:04;96156.50;;;4.74;67.27
60479;BME280;46321;48.398;11.754;2023-03-18T00:18:30;96159.56;;;4.69;67.62
60479;BME280;46321;48.398;11.754;2023-03-18T00:20:57;96171.72;;;4.70;67.49
60479;BME280;46321;48.398;11.754;2023-03-18T00:23:24;96174.34;;;4.70;67.93
60479;BME280;46321;48.398;11.754;2023-03-18T00:25:52;96177.22;;;4.67;68.56
60479;BME280;46321;48.398;11.754;2023-03-18T00:28:18;96181.97;;;4.53;68.97
60479;BME280;46321;48.398;11.754;2023-03-18T00:30:43;96180.78;;;4.47;69.12
60479;BME280;46321;48.398;11.754;2023-03-18T00:33:09;96182.75;;;4.35;69.45
60479;BME280;46321;48.398;11.754;2023-03-18T00:35:35;96184.97;;;4.30;69.84
60479;BME280;46321;48.398;11.754;2023-03-18T00:38:02;96173.28;;;4.15;69.64
60479;BME280;46321;48.398;11.754;2023-03-18T00:40:31;96174.13;;;4.15;69.63
60479;BME280;46321;48.398;11.754;2023-03-18T00:43:08;96177.28;;;4.19;69.61
60479;BME280;46321;48.398;11.754;2023-03-18T00:45:36;96180.28;;;4.24;69.18
60479;BME280;46321;48.398;11.754;2023-03-18T00:48:02;96189.94;;;4.23;69.22
60479;BME280;46321;48.398;11.754;2023-03-18T00:50:28;96187.88;;;4.27;69.44
60479;BME280;46321;48.398;11.754;2023-03-18T00:52:53;96188.03;;;4.16;69.70
60479;BME280;46321;48.398;11.754;2023-03-18T00:55:18;96189.00;;;4.15;69.70
60479;BME280;46321;48.398;11.754;2023-03-18T00:57:44;96181.88;;;4.07;69.65
60479;BME280;46321;48.398;11.754;2023-03-18T01:00:10;96197.31;;;4.10;69.89
60479;BME280;46321;48.398;11.754;2023-03-18T01:02:36;96198.41;;;4.07;69.72
60479;BME280;46321;48.398;11.754;2023-03-18T01:05:02;96198.28;;;3.99;70.12
60479;BME280;46321;48.398;11.754;2023-03-18T01:07:28;96193.59;;;3.93;69.95
60479;BME280;46321;48.398;11.754;2023-03-18T01:09:53;96187.53;;;3.92;69.88
60479;BME280;46321;48.398;11.754;2023-03-18T01:12:18;96198.56;;;3.96;69.60
60479;BME280;46321;48.398;11.754;2023-03-18T01:14:44;96196.78;;;3.86;70.58
60479;BME280;46321;48.398;11.754;2023-03-18T01:17:10;96195.84;;;3.87;70.18
60479;BME280;46321;48.398;11.754;2023-03-18T01:19:35;96198.00;;;3.92;70.26
60479;BME280;46321;48.398;11.754;2023-03-18T01:22:02;96197.22;;;3.92;70.33
60479;BME280;46321;48.398;11.754;2023-03-18T01:24:28;96194.44;;;3.83;70.69
60479;BME280;46321;48.398;11.754;2023-03-18T01:26:53;96187.84;;;3.79;70.88
60479;BME280;46321;48.398;11.754;2023-03-18T01:29:19;96195.00;;;3.77;70.72
60479;BME280;46321;48.398;11.754;2023-03-18T01:31:46;96196.97;;;3.65;70.88
60479;BME280;46321;48.398;11.754;2023-03-18T01:34:12;96188.97;;;3.66;70.64
60479;BME280;46321;48.398;11.754;2023-03-18T01:36:38;96196.25;;;3.73;70.80
60479;BME280;46321;48.398;11.754;2023-03-18T01:39:04;96191.56;;;3.66;71.05
60479;BME280;46321;48.398;11.754;2023-03-18T01:41:30;96197.75;;;3.65;71.69
60479;BME280;46321;48.398;11.754;2023-03-18T01:43:56;96201.22;;;3.56;71.46
60479;BME280;46321;48.398;11.754;2023-03-18T01:46:37;96202.44;;;3.52;71.15
60479;BME280;46321;48.398;11.754;2023-03-18T01:49:06;96203.03;;;3.55;70.92
60479;BME280;46321;48.398;11.754;2023-03-18T01:51:33;96195.72;;;3.59;70.89
60479;BME280;46321;48.398;11.754;2023-03-18T01:54:01;96195.28;;;3.54;71.24
60479;BME280;46321;48.398;11.754;2023-03-18T01:56:27;96201.34;;;3.54;70.34
60479;BME280;46321;48.398;11.754;2023-03-18T01:58:55;96204.25;;;3.51;70.83
60479;BME280;46321;48.398;11.754;2023-03-18T02:01:30;96210.44;;;3.50;70.60
60479;BME280;46321;48.398;11.754;2023-03-18T02:03:57;96197.66;;;3.47;70.62
60479;BME280;46321;48.398;11.754;2023-03-18T02:06:25;96197.78;;;3.46;70.89
60479;BME280;46321;48.398;11.754;2023-03-18T02:08:51;96205.91;;;3.42;70.97
60479;BME280;46321;48.398;11.754;2023-03-18T02:11:16;96218.84;;;3.44;71.03
60479;BME280;46321;48.398;11.754;2023-03-18T02:13:44;96220.78;;;3.42;70.56
60479;BME280;46321;48.398;11.754;2023-03-18T02:16:20;96218.72;;;3.46;70.33
60479;BME280;46321;48.398;11.754;2023-03-18T02:18:51;96212.94;;;3.42;70.69
60479;BME280;46321;48.398;11.754;2023-03-18T02:24:15;96221.34;;;3.36;70.53
60479;BME280;46321;48.398;11.754;2023-03-18T02:27:03;96221.44;;;3.34;71.20
60479;BME280;46321;48.398;11.754;2023-03-18T02:29:32;96219.13;;;3.31;71.58
60479;BME280;46321;48.398;11.754;2023-03-18T02:32:00;96224.22;;;3.32;70.89
60479;BME280;46321;48.398;11.754;2023-03-18T02:34:28;96228.91;;;3.29;71.13
60479;BME280;46321;48.398;11.754;2023-03-18T02:36:54;96231.53;;;3.29;71.60
60479;BME280;46321;48.398;11.754;2023-03-18T02:39:21;96229.84;;;3.28;71.63
60479;BME280;46321;48.398;11.754;2023-03-18T02:41:47;96231.09;;;3.24;72.50
60479;BME280;46321;48.398;11.754;2023-03-18T02:44:13;96232.59;;;3.26;72.27
60479;BME280;46321;48.398;11.754;2023-03-18T02:46:51;96231.53;;;3.29;72.13
60479;BME280;46321;48.398;11.754;2023-03-18T02:49:19;96237.16;;;3.24;72.34
60479;BME280;46321;48.398;11.754;2023-03-18T02:51:45;96235.38;;;3.25;72.61
60479;BME280;46321;48.398;11.754;2023-03-18T02:54:14;96230.41;;;3.22;73.06
60479;BME280;46321;48.398;11.754;2023-03-18T02:56:41;96239.34;;;3.19;73.57
60479;BME280;46321;48.398;11.754;2023-03-18T02:59:07;96240.56;;;3.15;73.19
60479;BME280;46321;48.398;11.754;2023-03-18T03:01:33;96246.75;;;3.14;73.27
60479;BME280;46321;48.398;11.754;2023-03-18T03:03:59;96249.25;;;3.15;72.98
60479;BME280;46321;48.398;11.754;2023-03-18T03:06:24;96240.72;;;3.13;73.13
60479;BME280;46321;48.398;11.754;2023-03-18T03:08:50;96243.19;;;3.15;73.08
60479;BME280;46321;48.398;11.754;2023-03-18T03:11:16;96257.34;;;3.12;72.83
60479;BME280;46321;48.398;11.754;2023-03-18T03:13:43;96249.63;;;3.01;74.08
60479;BME280;46321;48.398;11.754;2023-03-18T03:16:13;96263.38;;;3.03;73.87
60479;BME280;46321;48.398;11.754;2023-03-18T03:18:40;96253.19;;;3.00;73.44
60479;BME280;46321;48.398;11.754;2023-03-18T03:21:06;96258.03;;;3.04;73.67
60479;BME280;46321;48.398;11.754;2023-03-18T03:23:32;96260.66;;;3.04;73.50
60479;BME280;46321;48.398;11.754;2023-03-18T03:25:57;96260.50;;;3.06;73.70
60479;BME280;46321;48.398;11.754;2023-03-18T03:28:23;96262.03;;;3.08;73.52
60479;BME280;46321;48.398;11.754;2023-03-18T03:30:48;96271.41;;;3.11;73.29
60479;BME280;46321;48.398;11.754;2023-03-18T03:33:14;96270.44;;;3.12;72.80
60479;BME280;46321;48.398;11.754;2023-03-18T03:35:39;96270.28;;;3.14;72.90
60479;BME280;46321;48.398;11.754;2023-03-18T03:38:06;96268.50;;;3.04;73.54
60479;BME280;46321;48.398;11.754;2023-03-18T03:40:32;96272.50;;;3.08;72.61
60479;BME280;46321;48.398;11.754;2023-03-18T03:42:57;96267.66;;;3.04;73.10
60479;BME280;46321;48.398;11.754;2023-03-18T03:45:22;96269.84;;;2.98;73.00
60479;BME280;46321;48.398;11.754;2023-03-18T03:47:48;96272.22;;;3.02;72.52
60479;BME280;46321;48.398;11.754;2023-03-18T03:50:16;96274.41;;;3.06;72.50
60479;BME280;46321;48.398;11.754;2023-03-18T03:52:42;96273.59;;;3.06;72.75
60479;BME280;46321;48.398;11.754;2023-03-18T03:55:09;96277.03;;;3.06;72.96
60479;BME280;46321;48.398;11.754;2023-03-18T03:57:35;96275.91;;;2.99;73.43
60479;BME280;46321;48.398;11.754;2023-03-18T04:00:02;96267.63;;;2.94;73.16
60479;BME280;46321;48.398;11.754;2023-03-18T04:02:27;96276.03;;;2.97;72.67
60479;BME280;46321;48.398;11.754;2023-03-18T04:04:52;96280.88;;;3.02;72.96
60479;BME280;46321;48.398;11.754;2023-03-18T04:07:18;96284.31;;;3.03;73.21
60479;BME280;46321;48.398;11.754;2023-03-18T04:09:44;96286.38;;;2.99;72.86
60479;BME280;46321;48.398;11.754;2023-03-18T04:12:09;96285.41;;;3.00;72.76
60479;BME280;46321;48.398;11.754;2023-03-18T04:14:36;96277.69;;;2.98;73.01
60479;BME280;46321;48.398;11.754;2023-03-18T04:17:01;96279.06;;;3.03;72.96
60479;BME280;46321;48.398;11.754;2023-03-18T04:19:27;96281.13;;;2.99;73.25
60479;BME280;46321;48.398;11.754;2023-03-18T04:21:53;96281.28;;;2.97;73.63
60479;BME280;46321;48.398;11.754;2023-03-18T04:24:20;96287.84;;;2.92;74.02
60479;BME280;46321;48.398;11.754;2023-03-18T04:26:45;96285.63;;;2.87;74.42
60479;BME280;46321;48.398;11.754;2023-03-18T04:29:11;96294.16;;;2.89;74.37
60479;BME280;46321;48.398;11.754;2023-03-18T04:31:37;96291.56;;;2.89;74.45
60479;BME280;46321;48.398;11.754;2023-03-18T04:34:03;96291.00;;;2.85;74.64
60479;BME280;46321;48.398;11.754;2023-03-18T04:36:28;96291.81;;;2.86;74.83
60479;BME280;46321;48.398;11.754;2023-03-18T04:38:54;96296.66;;;2.91;74.76
60479;BME280;46321;48.398;11.754;2023-03-18T04:41:19;96296.38;;;2.94;74.55
60479;BME280;46321;48.398;11.754;2023-03-18T04:43:44;96295.00;;;2.90;74.72
60479;BME280;46321;48.398;11.754;2023-03-18T04:46:10;96292.09;;;2.83;74.89
60479;BME280;46321;48.398;11.754;2023-03-18T04:48:37;96293.75;;;2.84;74.69
60479;BME280;46321;48.398;11.754;2023-03-18T04:51:02;96300.22;;;2.90;74.32
60479;BME280;46321;48.398;11.754;2023-03-18T04:53:28;96304.50;;;2.91;74.11
60479;BME280;46321;48.398;11.754;2023-03-18T04:55:53;96294.31;;;2.88;74.03
60479;BME280;46321;48.398;11.754;2023-03-18T04:58:18;96304.38;;;2.92;74.22
60479;BME280;46321;48.398;11.754;2023-03-18T05:00:43;96305.22;;;2.93;73.92
60479;BME280;46321;48.398;11.754;2023-03-18T05:03:10;96310.28;;;2.94;74.76
60479;BME280;46321;48.398;11.754;2023-03-18T05:05:35;96307.00;;;2.92;74.57
60479;BME280;46321;48.398;11.754;2023-03-18T05:08:00;96306.28;;;2.90;74.23
60479;BME280;46321;48.398;11.754;2023-03-18T05:10:26;96303.44;;;2.93;74.54
60479;BME280;46321;48.398;11.754;2023-03-18T05:12:51;96295.84;;;2.90;74.16
60479;BME280;46321;48.398;11.754;2023-03-18T05:15:16;96298.44;;;2.90;74.13
60479;BME280;46321;48.398;11.754;2023-03-18T05:17:42;96295.59;;;2.93;74.55
60479;BME280;46321;48.398;11.754;2023-03-18T05:20:08;96302.59;;;2.93;74.86
60479;BME280;46321;48.398;11.754;2023-03-18T05:22:34;96300.09;;;2.91;75.53
60479;BME280;46321;48.398;11.754;2023-03-18T05:25:00;96295.69;;;2.92;75.23
60479;BME280;46321;48.398;11.754;2023-03-18T05:27:26;96299.44;;;2.99;74.81
60479;BME280;46321;48.398;11.754;2023-03-18T05:29:52;96312.06;;;2.94;75.43
60479;BME280;46321;48.398;11.754;2023-03-18T05:32:18;96306.16;;;2.92;75.81
60479;BME280;46321;48.398;11.754;2023-03-18T05:34:43;96307.53;;;2.96;75.56
60479;BME280;46321;48.398;11.754;2023-03-18T05:37:11;96307.97;;;3.01;75.56
60479;BME280;46321;48.398;11.754;2023-03-18T05:39:37;96312.13;;;3.04;75.43
60479;BME280;46321;48.398;11.754;2023-03-18T05:42:03;96305.91;;;3.05;75.52
60479;BME280;46321;48.398;11.754;2023-03-18T05:44:28;96304.56;;;3.11;75.23
60479;BME280;46321;48.398;11.754;2023-03-18T05:46:54;96318.22;;;3.14;75.11
60479;BME280;46321;48.398;11.754;2023-03-18T05:49:20;96306.81;;;3.15;75.04
60479;BME280;46321;48.398;11.754;2023-03-18T05:51:46;96309.97;;;3.19;74.97
60479;BME280;46321;48.398;11.754;2023-03-18T05:54:14;96305.28;;;3.23;74.50
60479;BME280;46321;48.398;11.754;2023-03-18T05:56:43;96300.78;;;3.25;74.53
60479;BME280;46321;48.398;11.754;2023-03-18T05:59:10;96311.53;;;3.31;74.46
60479;BME280;46321;48.398;11.754;2023-03-18T06:01:36;96315.38;;;3.37;74.22
60479;BME280;46321;48.398;11.754;2023-03-18T06:04:02;96319.25;;;3.43;74.51
60479;BME280;46321;48.398;11.754;2023-03-18T06:06:29;96317.91;;;3.49;74.88
60479;BME280;46321;48.398;11.754;2023-03-18T06:08:54;96317.22;;;3.47;75.13
60479;BME280;46321;48.398;11.754;2023-03-18T06:11:20;96322.59;;;3.55;75.20
60479;BME280;46321;48.398;11.754;2023-03-18T06:13:45;96324.13;;;3.58;75.21
60479;BME280;46321;48.398;11.754;2023-03-18T06:16:11;96323.81;;;3.61;75.55
60479;BME280;46321;48.398;11.754;2023-03-18T06:18:37;96327.84;;;3.65;75.42
60479;BME280;46321;48.398;11.754;2023-03-18T06:21:03;96327.16;;;3.73;75.56
60479;BME280;46321;48.398;11.754;2023-03-18T06:23:29;96326.34;;;3.82;75.59
60479;BME280;46321;48.398;11.754;2023-03-18T06:25:55;96330.09;;;3.89;75.24
60479;BME280;46321;48.398;11.754;2023-03-18T06:28:21;96323.31;;;3.97;74.93
60479;BME280;46321;48.398;11.754;2023-03-18T06:30:46;96325.41;;;4.03;75.15
60479;BME280;46321;48.398;11.754;2023-03-18T06:33:11;96330.09;;;4.09;74.86
60479;BME280;46321;48.398;11.754;2023-03-18T06:35:37;96331.16;;;4.17;74.59
60479;BME280;46321;48.398;11.754;2023-03-18T06:38:03;96332.28;;;4.24;74.63
60479;BME280;46321;48.398;11.754;2023-03-18T06:40:28;96336.41;;;4.37;74.60
60479;BME280;46321;48.398;11.754;2023-03-18T06:42:53;96333.91;;;4.45;74.33
60479;BME280;46321;48.398;11.754;2023-03-18T06:45:19;96324.91;;;4.57;73.87
60479;BME280;46321;48.398;11.754;2023-03-18T06:47:46;96337.03;;;4.68;73.81
60479;BME280;46321;48.398;11.754;2023-03-18T06:50:13;96330.94;;;4.78;73.73
60479;BME280;46321;48.398;11.754;2023-03-18T06:52:39;96332.56;;;4.89;73.43
60479;BME280;46321;48.398;11.754;2023-03-18T06:55:05;96332.69;;;4.97;73.26
60479;BME280;46321;48.398;11.754;2023-03-18T06:57:31;96327.91;;;5.11;73.07
60479;BME280;46321;48.398;11.754;2023-03-18T06:59:57;96329.41;;;5.23;73.60
60479;BME280;46321;48.398;11.754;2023-03-18T07:02:22;96331.69;;;5.36;73.35
60479;BME280;46321;48.398;11.754;2023-03-18T07:04:49;96335.06;;;5.47;73.31
60479;BME280;46321;48.398;11.754;2023-03-18T07:07:14;96341.78;;;5.59;72.98
60479;BME280;46321;48.398;11.754;2023-03-18T07:09:40;96338.13;;;5.70;72.73
60479;BME280;46321;48.398;11.754;2023-03-18T07:12:06;96342.06;;;5.84;71.95
60479;BME280;46321;48.398;11.754;2023-03-18T07:14:31;96337.38;;;5.96;71.89
60479;BME280;46321;48.398;11.754;2023-03-18T07:16:57;96337.72;;;6.12;71.43
60479;BME280;46321;48.398;11.754;2023-03-18T07:19:22;96338.03;;;6.27;70.97
60479;BME280;46321;48.398;11.754;2023-03-18T07:21:47;96338.47;;;6.40;70.54
60479;BME280;46321;48.398;11.754;2023-03-18T07:24:13;96338.19;;;6.52;70.88
60479;BME280;46321;48.398;11.754;2023-03-18T07:26:39;96338.78;;;6.64;70.40
60479;BME280;46321;48.398;11.754;2023-03-18T07:29:05;96341.66;;;6.79;69.38
60479;BME280;46321;48.398;11.754;2023-03-18T07:31:31;96344.19;;;6.89;68.95
60479;BME280;46321;48.398;11.754;2023-03-18T07:33:56;96340.31;;;7.02;68.77
60479;BME280;46321;48.398;11.754;2023-03-18T07:36:22;96344.84;;;7.18;68.30
60479;BME280;46321;48.398;11.754;2023-03-18T07:38:48;96342.97;;;7.37;68.07
60479;BME280;46321;48.398;11.754;2023-03-18T07:41:13;96340.03;;;7.48;67.33
60479;BME280;46321;48.398;11.754;2023-03-18T07:43:39;96341.75;;;7.66;67.05
60479;BME280;46321;48.398;11.754;2023-03-18T07:46:04;96346.38;;;7.81;66.74
60479;BME280;46321;48.398;11.754;2023-03-18T07:48:30;96349.88;;;7.98;66.14
60479;BME280;46321;48.398;11.754;2023-03-18T07:50:55;96349.06;;;8.14;65.71
60479;BME280;46321;48.398;11.754;2023-03-18T07:53:21;96346.47;;;8.31;65.20
60479;BME280;46321;48.398;11.754;2023-03-18T07:55:46;96340.69;;;8.44;64.68
60479;BME280;46321;48.398;11.754;2023-03-18T07:58:11;96347.44;;;8.55;63.08
60479;BME280;46321;48.398;11.754;2023-03-18T08:00:37;96346.13;;;8.67;62.96
60479;BME280;46321;48.398;11.754;2023-03-18T08:03:03;96348.94;;;8.82;62.55
60479;BME280;46321;48.398;11.754;2023-03-18T08:05:28;96357.81;;;8.98;62.22
60479;BME280;46321;48.398;11.754;2023-03-18T08:07:53;96344.09;;;9.11;62.15
60479;BME280;46321;48.398;11.754;2023-03-18T08:10:19;96349.31;;;9.28;61.54
60479;BME280;46321;48.398;11.754;2023-03-18T08:12:44;96349.25;;;9.45;61.27
60479;BME280;46321;48.398;11.754;2023-03-18T08:15:10;96352.16;;;9.58;60.49
60479;BME280;46321;48.398;11.754;2023-03-18T08:17:36;96353.09;;;9.74;60.75
60479;BME280;46321;48.398;11.754;2023-03-18T08:20:01;96346.06;;;9.90;59.77
60479;BME280;46321;48.398;11.754;2023-03-18T08:22:27;96346.31;;;10.03;58.49
60479;BME280;46321;48.398;11.754;2023-03-18T08:24:52;96350.31;;;10.23;58.20
60479;BME280;46321;48.398;11.754;2023-03-18T08:27:18;96350.00;;;10.41;57.19
60479;BME280;46321;48.398;11.754;2023-03-18T08:29:44;96350.91;;;10.57;56.74
60479;BME280;46321;48.398;11.754;2023-03-18T08:32:10;96353.38;;;10.73;56.91
60479;BME280;46321;48.398;11.754;2023-03-18T08:34:35;96345.66;;;10.87;55.94
60479;BME280;46321;48.398;11.754;2023-03-18T08:37:00;96358.25;;;11.00;55.74
60479;BME280;46321;48.398;11.754;2023-03-18T08:39:26;96354.38;;;11.11;55.41
60479;BME280;46321;48.398;11.754;2023-03-18T08:41:52;96348.06;;;11.27;55.23
60479;BME280;46321;48.398;11.754;2023-03-18T08:44:17;96351.50;;;11.43;55.13
60479;BME280;46321;48.398;11.754;2023-03-18T08:46:42;96354.63;;;11.62;54.31
60479;BME280;46321;48.398;11.754;2023-03-18T08:49:08;96346.00;;;11.75;53.33
60479;BME280;46321;48.398;11.754;2023-03-18T08:51:34;96339.25;;;11.94;53.11
60479;BME280;46321;48.398;11.754;2023-03-18T08:53:59;96346.66;;;11.99;52.40
60479;BME280;46321;48.398;11.754;2023-03-18T08:56:25;96342.78;;;12.17;52.31
60479;BME280;46321;48.398;11.754;2023-03-18T08:58:51;96342.91;;;12.30;52.16
60479;BME280;46321;48.398;11.754;2023-03-18T09:01:17;96337.78;;;12.51;51.74
60479;BME280;46321;48.398;11.754;2023-03-18T09:03:43;96334.03;;;12.67;50.79
60479;BME280;46321;48.398;11.754;2023-03-18T09:06:09;96341.53;;;12.85;50.61
60479;BME280;46321;48.398;11.754;2023-03-18T09:08:34;96346.56;;;13.09;49.64
60479;BME280;46321;48.398;11.754;2023-03-18T09:11:00;96349.56;;;13.27;49.46
60479;BME280;46321;48.398;11.754;2023-03-18T09:13:26;96345.16;;;13.42;48.85
60479;BME280;46321;48.398;11.754;2023-03-18T09:15:51;96348.34;;;13.66;48.70
60479;BME280;46321;48.398;11.754;2023-03-18T09:18:18;96341.44;;;13.85;47.57
60479;BME280;46321;48.398;11.754;2023-03-18T09:20:44;96348.06;;;14.16;47.00
60479;BME280;46321;48.398;11.754;2023-03-18T09:23:11;96343.41;;;14.59;46.25
60479;BME280;46321;48.398;11.754;2023-03-18T09:25:38;96339.53;;;14.82;45.84
60479;BME280;46321;48.398;11.754;2023-03-18T09:28:04;96342.16;;;15.23;45.26
60479;BME280;46321;48.398;11.754;2023-03-18T09:30:30;96338.13;;;15.60;44.32
60479;BME280;46321;48.398;11.754;2023-03-18T09:32:56;96337.16;;;15.93;43.74
60479;BME280;46321;48.398;11.754;2023-03-18T09:35:21;96334.16;;;16.22;43.34
60479;BME280;46321;48.398;11.754;2023-03-18T09:37:46;96333.78;;;16.51;42.83
60479;BME280;46321;48.398;11.754;2023-03-18T09:40:21;96339.34;;;16.75;41.55
60479;BME280;46321;48.398;11.754;2023-03-18T09:42:57;96338.16;;;16.89;41.13
60479;BME280;46321;48.398;11.754;2023-03-18T09:45:28;96339.97;;;16.70;40.85
60479;BME280;46321;48.398;11.754;2023-03-18T09:48:31;96343.81;;;17.25;40.68
60479;BME280;46321;48.398;11.754;2023-03-18T09:51:28;96328.88;;;17.74;39.55
60479;BME280;46321;48.398;11.754;2023-03-18T09:54:01;96331.81;;;18.03;38.66
60479;BME280;46321;48.398;11.754;2023-03-18T09:56:31;96332.50;;;18.29;38.32
60479;BME280;46321;48.398;11.754;2023-03-18T09:59:05;96323.81;;;18.58;36.87
60479;BME280;46321;48.398;11.754;2023-03-18T10:01:37;96336.28;;;18.52;37.52
60479;BME280;46321;48.398;11.754;2023-03-18T10:04:14;96331.84;;;18.58;36.88
60479;BME280;46321;48.398;11.754;2023-03-18T10:06:42;96322.53;;;18.73;37.68
60479;BME280;46321;48.398;11.754;2023-03-18T10:09:27;96328.13;;;18.95;37.23
60479;BME280;46321;48.398;11.754;2023-03-18T10:12:03;96336.97;;;19.56;36.73
60479;BME280;46321;48.398;11.754;2023-03-18T10:14:36;96331.66;;;20.14;36.00
60479;BME280;46321;48.398;11.754;2023-03-18T10:17:17;96323.88;;;21.16;34.38
60479;BME280;46321;48.398;11.754;2023-03-18T10:19:47;96326.91;;;22.38;32.64
60479;BME280;46321;48.398;11.754;2023-03-18T10:22:40;96335.28;;;23.56;29.58
60479;BME280;46321;48.398;11.754;2023-03-18T10:25:18;96325.78;;;24.65;28.85
60479;BME280;46321;48.398;11.754;2023-03-18T10:35:41;96319.38;;;27.25;23.84
60479;BME280;46321;48.398;11.754;2023-03-18T10:38:21;96317.47;;;26.25;24.46
60479;BME280;46321;48.398;11.754;2023-03-18T10:40:48;96314.59;;;25.45;25.84
60479;BME280;46321;48.398;11.754;2023-03-18T10:43:21;96321.75;;;26.32;24.51
60479;BME280;46321;48.398;11.754;2023-03-18T10:45:57;96312.84;;;27.26;24.26
60479;BME280;46321;48.398;11.754;2023-03-18T10:48:35;96299.56;;;27.49;24.44
60479;BME280;46321;48.398;11.754;2023-03-18T10:53:54;96297.97;;;28.64;21.11
60479;BME280;46321;48.398;11.754;2023-03-18T10:56:22;96295.91;;;28.89;22.07
60479;BME280;46321;48.398;11.754;2023-03-18T10:58:48;96295.06;;;29.78;19.69
60479;BME280;46321;48.398;11.754;2023-03-18T11:01:15;96297.34;;;30.36;19.98
60479;BME280;46321;48.398;11.754;2023-03-18T11:03:51;96289.47;;;31.62;18.29
60479;BME280;46321;48.398;11.754;2023-03-18T11:06:22;96284.25;;;29.31;20.14
60479;BME280;46321;48.398;11.754;2023-03-18T11:09:05;96283.81;;;29.94;19.85
60479;BME280;46321;48.398;11.754;2023-03-18T11:11:33;96273.09;;;31.30;18.29
60479;BME280;46321;48.398;11.754;2023-03-18T11:14:01;96271.66;;;32.00;17.13
60479;BME280;46321;48.398;11.754;2023-03-18T11:16:33;96268.56;;;31.75;16.40
60479;BME280;46321;48.398;11.754;2023-03-18T11:19:07;96264.78;;;31.36;16.59
60479;BME280;46321;48.398;11.754;2023-03-18T11:21:45;96252.22;;;32.95;15.73
60479;BME280;46321;48.398;11.754;2023-03-18T11:24:24;96255.72;;;31.26;16.09
60479;BME280;46321;48.398;11.754;2023-03-18T11:27:00;96249.91;;;31.95;16.33
60479;BME280;46321;48.398;11.754;2023-03-18T11:29:29;96245.41;;;33.01;15.85
60479;BME280;46321;48.398;11.754;2023-03-18T11:31:58;96246.22;;;32.36;15.73
60479;BME280;46321;48.398;11.754;2023-03-18T11:34:25;96240.19;;;32.78;15.87
60479;BME280;46321;48.398;11.754;2023-03-18T11:37:02;96246.03;;;30.47;18.13
60479;BME280;46321;48.398;11.754;2023-03-18T11:39:31;96248.09;;;29.81;18.16
60479;BME280;46321;48.398;11.754;2023-03-18T11:41:58;96241.19;;;29.19;18.70
60479;BME280;46321;48.398;11.754;2023-03-18T11:44:28;96239.84;;;27.63;19.92
60479;BME280;46321;48.398;11.754;2023-03-18T11:47:19;96237.38;;;26.68;21.95
60479;BME280;46321;48.398;11.754;2023-03-18T11:49:46;96233.78;;;26.08;21.52
60479;BME280;46321;48.398;11.754;2023-03-18T11:52:50;96233.53;;;24.82;22.05
60479;BME280;46321;48.398;11.754;2023-03-18T11:55:20;96229.28;;;23.22;23.38
60479;BME280;46321;48.398;11.754;2023-03-18T12:01:38;96219.19;;;23.02;24.22
60479;BME280;46321;48.398;11.754;2023-03-18T12:04:27;96224.66;;;21.98;25.38
60479;BME280;46321;48.398;11.754;2023-03-18T12:07:11;96213.50;;;21.34;27.70
60479;BME280;46321;48.398;11.754;2023-03-18T12:10:00;96214.13;;;21.41;26.65
60479;BME280;46321;48.398;11.754;2023-03-18T12:15:39;96206.28;;;21.17;27.13
60479;BME280;46321;48.398;11.754;2023-03-18T12:21:20;96197.22;;;20.44;27.62
60479;BME280;46321;48.398;11.754;2023-03-18T12:24:15;96197.69;;;19.42;29.77
60479;BME280;46321;48.398;11.754;2023-03-18T12:29:43;96202.00;;;20.07;28.13
60479;BME280;46321;48.398;11.754;2023-03-18T12:32:22;96193.84;;;19.67;28.48
60479;BME280;46321;48.398;11.754;2023-03-18T12:41:14;96201.94;;;19.14;29.18
60479;BME280;46321;48.398;11.754;2023-03-18T12:44:02;96196.00;;;19.12;29.63
60479;BME280;46321;48.398;11.754;2023-03-18T12:46:35;96201.25;;;19.31;29.20
60479;BME280;46321;48.398;11.754;2023-03-18T12:49:13;96191.16;;;19.38;31.32
60479;BME280;46321;48.398;11.754;2023-03-18T12:51:49;96201.44;;;19.41;29.21
60479;BME280;46321;48.398;11.754;2023-03-18T12:54:23;96197.97;;;19.29;30.14
60479;BME280;46321;48.398;11.754;2023-03-18T12:56:54;96198.38;;;19.08;30.14
60479;BME280;46321;48.398;11.754;2023-03-18T12:59:29;96191.09;;;19.33;29.66
60479;BME280;46321;48.398;11.754;2023-03-18T13:02:13;96193.38;;;19.41;29.76
60479;BME280;46321;48.398;11.754;2023-03-18T13:04:50;96189.72;;;19.48;29.63
60479;BME280;46321;48.398;11.754;2023-03-18T13:07:25;96191.66;;;19.64;28.80
60479;BME280;46321;48.398;11.754;2023-03-18T13:10:00;96194.50;;;19.75;29.12
60479;BME280;46321;48.398;11.754;2023-03-18T13:12:42;96185.97;;;19.78;28.10
60479;BME280;46321;48.398;11.754;2023-03-18T13:15:21;96191.38;;;19.49;28.68
60479;BME280;46321;48.398;11.754;2023-03-18T13:17:52;96190.69;;;19.41;28.46
60479;BME280;46321;48.398;11.754;2023-03-18T13:20:22;96191.66;;;19.64;28.53
60479;BME280;46321;48.398;11.754;2023-03-18T13:22:59;96185.00;;;19.38;29.44
60479;BME280;46321;48.398;11.754;2023-03-18T13:25:59;96189.25;;;19.51;29.47
60479;BME280;46321;48.398;11.754;2023-03-18T13:28:43;96186.59;;;19.68;28.73
60479;BME280;46321;48.398;11.754;2023-03-18T13:31:36;96181.69;;;19.48;29.19
60479;BME280;46321;48.398;11.754;2023-03-18T13:44:43;96179.31;;;18.69;30.52
60479;BME280;46321;48.398;11.754;2023-03-18T13:47:17;96175.16;;;18.37;30.69
60479;BME280;46321;48.398;11.754;2023-03-18T13:49:44;96174.09;;;18.50;30.33